Time;durP1;ratioP1;P1;durP2;ratioP2;P2;SDS_P1;SDS_P2;PMS_P1;PMS_P2;Temp;Humidity;BMP_temperature;BMP_pressure;BME280_temperature;BME280_humidity;BME280_pressure;Samples;Min_cycle;Max_cycle;Signal;HPM_P1;HPM_P2
2024/02/28 05:00:28;;;;;;;6.17;4.87;;;3.90;97.30;;;;;;6034862;23;21260;31
2024/02/28 05:03:26;;;;;;;2.80;2.40;;;3.90;97.30;;;;;;4932914;29;20675;-84
2024/02/28 05:05:57;;;;;;;2.33;2.13;;;3.90;97.30;;;;;;4947460;29;20424;-84
2024/02/28 05:11:18;;;;;;;2.63;2.43;;;3.80;97.30;;;;;;4934883;29;20436;-84
2024/02/28 05:13:46;;;;;;;6.10;2.70;;;3.80;97.30;;;;;;4937592;29;20587;-84
2024/02/28 05:16:18;;;;;;;1.80;1.70;;;3.80;97.30;;;;;;4931094;29;20474;-85
2024/02/28 05:18:47;;;;;;;3.67;2.37;;;3.80;97.30;;;;;;4949914;29;20443;-84
2024/02/28 05:21:17;;;;;;;2.00;1.77;;;3.80;97.30;;;;;;4933844;29;20559;-85
2024/02/28 05:23:57;;;;;;;5.17;3.90;;;3.80;97.30;;;;;;4933852;29;20428;-84
2024/02/28 05:26:35;;;;;;;4.47;3.43;;;3.70;97.30;;;;;;4934841;29;20420;-83
2024/02/28 05:29:07;;;;;;;5.90;4.50;;;3.70;97.30;;;;;;4951194;29;20506;-85
2024/02/28 05:32:18;;;;;;;;;;;;;;;;;;;;;
2024/02/28 05:34:47;;;;;;;3.27;2.90;;;3.80;97.30;;;;;;4932692;29;20775;-85
2024/02/28 05:37:36;;;;;;;4.63;4.33;;;3.80;97.30;;;;;;4933553;29;20478;-85
2024/02/28 05:40:17;;;;;;;8.77;4.73;;;3.80;97.30;;;;;;4878260;29;20427;-84
2024/02/28 05:43:18;;;;;;;;;;;;;;;;;;;;;
2024/02/28 05:45:47;;;;;;;7.80;3.90;;;3.80;97.30;;;;;;4879655;29;20434;-85
2024/02/28 05:48:37;;;;;;;5.47;5.17;;;3.80;97.30;;;;;;4876999;29;20442;-84
2024/02/28 05:51:27;;;;;;;3.73;3.20;;;3.70;97.30;;;;;;4863705;29;20595;-83
2024/02/28 05:54:27;;;;;;;6.77;3.97;;;3.70;97.30;;;;;;4864373;29;21048;-84
2024/02/28 05:56:55;;;;;;;6.47;3.13;;;3.70;97.30;;;;;;4880405;29;20987;-83
2024/02/28 05:59:27;;;;;;;3.50;3.27;;;3.70;97.30;;;;;;4949006;29;20435;-84
2024/02/28 06:01:57;;;;;;;7.63;4.63;;;3.70;97.30;;;;;;4934963;29;20475;-85
2024/02/28 06:05:19;;;;;;;;;;;;;;;;;;;;;
2024/02/28 06:07:47;;;;;;;8.33;3.33;;;3.70;97.30;;;;;;4930948;29;20435;-84
2024/02/28 06:13:15;;;;;;;2.83;2.63;;;3.80;97.30;;;;;;4934215;29;20937;-84
2024/02/28 06:16:17;;;;;;;4.87;3.23;;;3.80;97.30;;;;;;4943858;29;20810;-84
2024/02/28 06:19:37;;;;;;;8.30;3.70;;;3.70;97.30;;;;;;4866275;29;20443;-84
2024/02/28 06:22:56;;;;;;;3.43;3.23;;;3.70;97.30;;;;;;4931294;29;20950;-84
2024/02/28 06:25:28;;;;;;;4.97;2.43;;;3.60;97.30;;;;;;4932723;29;20551;-84
2024/02/28 06:27:56;;;;;;;16.13;4.70;;;3.60;97.30;;;;;;4948158;29;20921;-84
2024/02/28 06:30:28;;;;;;;2.93;2.53;;;3.60;97.30;;;;;;4933481;29;20416;-84
2024/02/28 06:33:08;;;;;;;3.10;2.50;;;3.70;97.30;;;;;;4948082;29;20527;-84
2024/02/28 06:35:37;;;;;;;2.83;2.63;;;3.60;97.30;;;;;;4949311;29;20779;-84
2024/02/28 06:38:38;;;;;;;;;;;;;;;;;;;;;
2024/02/28 06:41:07;;;;;;;5.00;4.30;;;3.60;97.30;;;;;;4931345;29;20963;-84
2024/02/28 06:44:08;;;;;;;1.60;1.50;;;3.60;97.30;;;;;;4933678;29;20450;-84
2024/02/28 06:46:48;;;;;;;2.60;2.27;;;3.60;97.30;;;;;;4948642;29;20434;-84
2024/02/28 06:49:16;;;;;;;2.30;2.10;;;3.60;97.30;;;;;;4949024;29;20446;-84
2024/02/28 06:52:00;;;;;;;5.40;3.53;;;3.60;97.30;;;;;;4948253;29;20487;-84
2024/02/28 06:54:47;;;;;;;6.17;3.30;;;3.60;97.30;;;;;;4950358;29;20426;-84
2024/02/28 06:58:07;;;;;;;2.40;2.20;;;3.60;97.30;;;;;;4933234;29;20459;-83
2024/02/28 07:00:58;;;;;;;8.77;3.63;;;3.70;97.30;;;;;;4941186;29;20808;-84
2024/02/28 07:07:07;;;;;;;4.67;3.53;;;3.70;97.30;;;;;;4896324;29;20449;-83
2024/02/28 07:10:07;;;;;;;6.93;3.90;;;3.60;97.30;;;;;;4948239;28;20712;-84
2024/02/28 07:13:07;;;;;;;5.30;2.17;;;3.60;97.30;;;;;;4940839;29;20811;-85
2024/02/28 07:16:06;;;;;;;5.47;2.60;;;3.70;97.30;;;;;;4922377;29;20518;-84
2024/02/28 07:18:37;;;;;;;3.33;3.10;;;3.80;97.30;;;;;;4925978;29;20942;-84
2024/02/28 07:21:36;;;;;;;6.53;2.50;;;3.80;97.30;;;;;;4936803;29;20471;-84
2024/02/28 07:24:08;;;;;;;5.23;2.70;;;3.80;97.30;;;;;;4896225;29;21001;-84
2024/02/28 07:26:46;;;;;;;3.63;1.87;;;3.80;97.30;;;;;;4943789;29;20632;-84
2024/02/28 07:29:37;;;;;;;7.57;4.07;;;3.80;97.30;;;;;;4942039;29;20416;-85
2024/02/28 07:32:07;;;;;;;4.13;2.17;;;3.70;97.30;;;;;;4940769;29;20451;-84
2024/02/28 07:34:47;;;;;;;2.80;2.10;;;3.70;97.30;;;;;;4951378;29;20977;-84
2024/02/28 07:40:17;;;;;;;4.63;3.10;;;3.80;97.30;;;;;;4933716;29;20420;-84
2024/02/28 07:43:17;;;;;;;1.40;1.30;;;3.70;97.30;;;;;;4951459;29;20447;-84
2024/02/28 07:45:45;;;;;;;2.53;2.33;;;3.80;97.30;;;;;;4914832;29;20417;-84
2024/02/28 07:48:55;;;;;;;3.57;3.10;;;3.80;97.30;;;;;;4914771;29;21118;-84
2024/02/28 07:52:07;;;;;;;1.43;1.33;;;3.80;97.30;;;;;;4914350;29;20456;-84
2024/02/28 07:55:29;;;;;;;;;;;;;;;;;;;;;
2024/02/28 07:57:58;;;;;;;6.57;2.60;;;3.80;97.30;;;;;;4851739;29;20466;-84
2024/02/28 08:01:26;;;;;;;3.80;2.80;;;3.80;97.30;;;;;;4862509;29;20927;-84
2024/02/28 08:03:57;;;;;;;4.20;2.63;;;3.80;97.30;;;;;;4836922;29;20494;-84
2024/02/28 08:06:38;;;;;;;2.37;2.20;;;3.80;97.30;;;;;;4861098;29;20419;-84
2024/02/28 08:09:17;;;;;;;3.20;3.00;;;3.80;97.30;;;;;;4877722;29;20522;-84
2024/02/28 08:11:58;;;;;;;3.33;3.13;;;3.90;97.30;;;;;;4890317;29;20459;-84
2024/02/28 08:14:28;;;;;;;7.33;2.83;;;4.00;97.30;;;;;;4942386;29;20430;-84
2024/02/28 08:17:46;;;;;;;5.70;2.37;;;4.00;97.30;;;;;;4936280;29;20565;-82
2024/02/28 08:20:18;;;;;;;6.77;2.83;;;4.10;97.30;;;;;;4949094;29;20467;-85
2024/02/28 08:22:56;;;;;;;;;;;;;;;;;;;;;
2024/02/28 08:26:07;;;;;;;4.90;3.27;;;4.10;97.30;;;;;;4936961;29;20422;-84
2024/02/28 08:28:46;;;;;;;1.67;1.60;;;4.10;97.30;;;;;;4950019;29;20423;-84
2024/02/28 08:35:16;;;;;;;6.90;3.13;;;4.20;97.30;;;;;;4933455;29;20434;-85
2024/02/28 08:37:41;;;;;;;6.00;4.03;;;4.20;97.30;;;;;;4910998;29;20474;-84
2024/02/28 08:40:08;;;;;;;9.97;4.30;;;4.20;97.30;;;;;;4939110;29;20431;-84
2024/02/28 08:42:33;;;;;;;3.63;2.90;;;4.30;97.30;;;;;;4951020;29;20200;-84
2024/02/28 08:45:00;;;;;;;2.70;2.03;;;4.30;97.30;;;;;;4950991;29;20431;-84
2024/02/28 08:47:26;;;;;;;2.27;2.07;;;4.40;97.30;;;;;;4951070;29;20209;-84
2024/02/28 08:49:53;;;;;;;5.13;2.80;;;4.50;97.30;;;;;;4950872;29;20432;-84
2024/02/28 08:52:19;;;;;;;2.90;2.70;;;4.60;97.30;;;;;;4950469;29;20535;-84
2024/02/28 08:54:45;;;;;;;3.03;2.60;;;4.70;97.30;;;;;;4950379;29;20467;-84
2024/02/28 08:57:13;;;;;;;3.03;1.87;;;4.70;97.30;;;;;;4950499;29;20498;-84
2024/02/28 08:59:46;;;;;;;5.03;4.53;;;4.70;97.30;;;;;;4935405;29;20667;-84
2024/02/28 09:02:37;;;;;;;2.80;1.93;;;4.70;97.30;;;;;;4935481;29;20479;-84
2024/02/28 09:05:26;;;;;;;5.47;2.20;;;4.60;97.30;;;;;;4950668;29;20678;-84
2024/02/28 09:08:05;;;;;;;9.73;3.30;;;4.60;97.30;;;;;;4935967;29;20432;-84
2024/02/28 09:11:28;;;;;;;;;;;;;;;;;;;;;
2024/02/28 09:14:17;;;;;;;4.37;1.93;;;4.60;97.30;;;;;;4934492;29;20439;-84
2024/02/28 09:16:48;;;;;;;6.27;4.03;;;4.70;97.30;;;;;;4927456;29;20537;-85
2024/02/28 09:19:17;;;;;;;14.67;3.87;;;4.60;97.30;;;;;;4939487;29;20438;-84
2024/02/28 09:21:48;;;;;;;3.07;2.87;;;4.60;97.30;;;;;;4949390;29;20452;-84
2024/02/28 09:24:16;;;;;;;5.30;3.60;;;4.60;97.30;;;;;;4948861;29;20432;-85
2024/02/28 09:27:06;;;;;;;7.03;1.80;;;4.50;97.30;;;;;;4949475;29;20706;-84
2024/02/28 09:29:57;;;;;;;3.30;3.10;;;4.50;97.30;;;;;;4949365;29;20506;-84
2024/02/28 09:32:27;;;;;;;3.77;2.20;;;4.50;97.30;;;;;;4938670;29;20439;-82
2024/02/28 09:35:07;;;;;;;6.43;3.00;;;4.60;97.30;;;;;;4950137;29;20431;-85
2024/02/28 09:37:37;;;;;;;3.47;2.30;;;4.70;97.30;;;;;;4952164;28;20469;-82
2024/02/28 09:40:18;;;;;;;5.23;2.70;;;4.70;97.30;;;;;;4945470;29;20446;-84
2024/02/28 09:43:57;;;;;;;7.30;3.60;;;4.80;97.30;;;;;;4941757;29;20444;-85
2024/02/28 09:49:37;;;;;;;5.77;3.33;;;5.40;97.30;;;;;;4922844;29;20930;-85
2024/02/28 09:52:17;;;;;;;2.40;2.20;;;5.50;97.30;;;;;;4934293;29;20478;-85
2024/02/28 10:00:48;;;;;;;5.93;3.23;;;5.90;97.30;;;;;;4931218;29;20441;-85
2024/02/28 10:03:46;;;;;;;2.70;2.50;;;6.00;97.30;;;;;;4914881;29;21028;-85
2024/02/28 10:06:38;;;;;;;5.53;2.83;;;6.00;97.30;;;;;;4915173;29;20438;-85
2024/02/28 10:09:15;;;;;;;3.37;2.67;;;6.00;97.30;;;;;;4925815;29;20431;-85
2024/02/28 10:11:43;;;;;;;1.83;1.73;;;6.20;97.30;;;;;;4940533;23;20525;-60
2024/02/28 10:14:09;;;;;;;1.97;1.87;;;6.20;97.30;;;;;;4950576;28;20915;-59
2024/02/28 10:16:34;;;;;;;2.10;1.90;;;6.20;97.30;;;;;;4950753;28;20466;-59
2024/02/28 10:19:02;;;;;;;3.63;3.43;;;6.10;97.30;;;;;;4950855;28;20266;-59
2024/02/28 10:21:32;;;;;;;6.20;1.83;;;6.00;97.30;;;;;;4950440;28;20679;-59
2024/02/28 10:23:58;;;;;;;3.73;3.53;;;6.00;97.30;;;;;;4950818;28;20451;-59
2024/02/28 10:26:24;;;;;;;6.00;3.63;;;6.10;97.30;;;;;;4949140;28;20442;-59
2024/02/28 10:28:50;;;;;;;2.57;2.40;;;6.20;97.30;;;;;;4951088;28;20431;-59
2024/02/28 10:31:16;;;;;;;8.57;4.17;;;6.40;97.30;;;;;;4950292;28;20238;-60
2024/02/28 10:33:42;;;;;;;11.53;4.13;;;6.50;97.30;;;;;;4950975;28;20455;-59
2024/02/28 10:36:08;;;;;;;2.47;2.20;;;6.70;97.30;;;;;;4950075;28;20183;-59
2024/02/28 10:38:34;;;;;;;4.13;2.97;;;6.90;97.30;;;;;;4955099;28;20176;-59
2024/02/28 10:41:03;;;;;;;8.30;4.23;;;7.00;97.30;;;;;;4950489;28;20489;-59
2024/02/28 10:43:29;;;;;;;4.20;2.10;;;7.10;97.30;;;;;;4949202;28;20179;-59
2024/02/28 10:45:58;;;;;;;8.43;4.03;;;7.20;97.30;;;;;;4949094;28;20446;-59
2024/02/28 10:48:25;;;;;;;4.07;3.80;;;7.30;97.30;;;;;;4950245;28;20822;-59
2024/02/28 10:50:51;;;;;;;4.83;4.30;;;7.50;97.30;;;;;;4950099;28;20770;-59
2024/02/28 10:53:21;;;;;;;3.63;2.27;;;7.30;97.30;;;;;;4949028;28;20418;-59
2024/02/28 10:55:49;;;;;;;5.93;3.47;;;7.20;97.20;;;;;;4950683;28;20466;-59
2024/02/28 10:58:15;;;;;;;3.17;2.97;;;7.20;97.30;;;;;;4949809;28;20477;-59
2024/02/28 11:00:44;;;;;;;3.97;3.77;;;7.20;97.30;;;;;;4948157;28;20446;-59
2024/02/28 11:03:10;;;;;;;4.50;3.23;;;7.40;97.30;;;;;;4957826;28;20501;-59
2024/02/28 11:05:38;;;;;;;5.13;3.23;;;7.50;97.30;;;;;;4957259;28;20423;-59
2024/02/28 11:08:10;;;;;;;12.43;4.70;;;7.40;96.80;;;;;;4948925;28;20805;-59
2024/02/28 11:10:43;;;;;;;6.73;2.50;;;7.40;97.10;;;;;;4949767;28;20558;-59
2024/02/28 11:13:10;;;;;;;3.90;3.10;;;7.50;97.30;;;;;;4950310;28;20422;-59
2024/02/28 11:15:36;;;;;;;11.80;3.60;;;7.60;97.30;;;;;;4949414;28;20783;-59
2024/02/28 11:18:09;;;;;;;4.53;3.23;;;7.70;97.10;;;;;;4948718;28;20468;-59
2024/02/28 11:20:35;;;;;;;2.63;2.47;;;7.50;96.70;;;;;;4949628;28;20446;-59
2024/02/28 11:23:01;;;;;;;2.93;2.80;;;7.50;96.80;;;;;;4950030;28;20411;-59
2024/02/28 11:25:26;;;;;;;7.27;2.57;;;7.50;97.10;;;;;;4949670;28;20415;-59
2024/02/28 11:27:52;;;;;;;2.33;2.13;;;7.50;97.30;;;;;;4950283;28;20180;-59
2024/02/28 11:30:17;;;;;;;7.17;2.57;;;7.50;97.30;;;;;;4948537;28;20597;-59
2024/02/28 11:32:43;;;;;;;4.20;3.90;;;7.40;96.80;;;;;;4948737;28;20270;-59
2024/02/28 11:35:11;;;;;;;5.27;2.50;;;7.40;97.10;;;;;;4948538;28;20183;-59
2024/02/28 11:37:38;;;;;;;2.87;2.53;;;7.50;97.10;;;;;;4950824;28;20277;-59
2024/02/28 11:40:09;;;;;;;4.30;2.60;;;7.70;96.80;;;;;;4948453;28;20797;-59
2024/02/28 11:42:36;;;;;;;6.60;3.93;;;7.90;96.60;;;;;;4946995;28;20538;-59
2024/02/28 11:45:05;;;;;;;8.90;3.50;;;8.10;96.90;;;;;;4949709;28;20950;-59
2024/02/28 11:47:34;;;;;;;9.40;7.73;;;8.20;95.20;;;;;;4948272;28;20439;-59
2024/02/28 11:50:02;;;;;;;5.40;2.30;;;8.30;94.90;;;;;;4948210;28;20431;-59
2024/02/28 11:52:31;;;;;;;4.93;2.30;;;8.50;94.70;;;;;;4949602;28;20892;-60
2024/02/28 11:54:57;;;;;;;4.20;2.73;;;8.60;94.00;;;;;;4949702;28;20462;-59
2024/02/28 11:57:22;;;;;;;4.57;3.17;;;8.60;94.00;;;;;;4949170;28;20471;-59
2024/02/28 11:59:48;;;;;;;3.87;2.60;;;8.80;94.60;;;;;;4952414;28;20214;-59
2024/02/28 12:02:15;;;;;;;6.67;4.77;;;9.00;93.70;;;;;;4951039;28;20815;-59
2024/02/28 12:04:42;;;;;;;6.53;3.10;;;8.90;92.10;;;;;;4949866;28;20415;-59
2024/02/28 12:07:11;;;;;;;5.43;2.87;;;9.20;92.60;;;;;;4953230;28;20502;-59
2024/02/28 12:09:38;;;;;;;6.10;2.67;;;9.30;92.00;;;;;;4945852;28;20443;-59
2024/02/28 12:12:06;;;;;;;4.03;2.23;;;9.40;91.80;;;;;;4950958;28;20475;-59
2024/02/28 12:14:33;;;;;;;5.87;2.30;;;9.60;91.80;;;;;;4951763;28;20457;-59
2024/02/28 12:16:58;;;;;;;4.70;3.57;;;9.50;90.70;;;;;;4950540;28;20779;-59
2024/02/28 12:19:24;;;;;;;3.00;2.80;;;9.50;91.10;;;;;;4952786;28;20429;-59
2024/02/28 12:21:50;;;;;;;5.43;2.13;;;9.60;90.80;;;;;;4952851;28;20199;-59
2024/02/28 12:24:15;;;;;;;3.10;2.93;;;9.70;90.40;;;;;;4952995;28;20655;-59
2024/02/28 12:26:41;;;;;;;2.17;2.00;;;9.80;89.60;;;;;;4951474;28;20179;-59
2024/02/28 12:29:07;;;;;;;5.00;4.53;;;10.00;90.30;;;;;;4953061;28;20211;-59
2024/02/28 12:31:32;;;;;;;5.10;2.70;;;10.20;89.00;;;;;;4952603;28;20203;-59
2024/02/28 12:33:58;;;;;;;6.83;3.30;;;10.40;89.00;;;;;;4953060;28;20973;-59
2024/02/28 12:36:24;;;;;;;5.10;2.73;;;10.40;88.10;;;;;;4951183;28;20207;-59
2024/02/28 12:38:50;;;;;;;8.77;4.03;;;10.50;88.50;;;;;;4954494;28;20423;-59
2024/02/28 12:41:17;;;;;;;3.33;2.60;;;10.70;88.40;;;;;;4957840;28;20577;-59
2024/02/28 12:43:43;;;;;;;8.47;3.07;;;10.80;87.80;;;;;;4952442;28;20422;-59
2024/02/28 12:46:08;;;;;;;3.83;2.80;;;10.80;87.60;;;;;;4951101;28;20427;-59
2024/02/28 12:48:38;;;;;;;56.43;2.70;;;10.70;87.30;;;;;;4952660;28;20183;-59
2024/02/28 12:51:05;;;;;;;3.13;2.97;;;10.60;87.40;;;;;;4959019;28;20576;-59
2024/02/28 12:53:31;;;;;;;1.80;1.43;;;10.50;87.10;;;;;;4952303;28;20435;-59
2024/02/28 12:55:57;;;;;;;3.07;2.03;;;10.70;87.00;;;;;;4962166;28;20422;-59
2024/02/28 12:58:25;;;;;;;5.80;3.30;;;11.00;87.10;;;;;;4959075;28;21008;-59
2024/02/28 13:00:51;;;;;;;4.63;3.20;;;11.20;86.70;;;;;;4952069;28;20205;-59
2024/02/28 13:03:17;;;;;;;4.20;3.20;;;11.30;87.20;;;;;;4958531;28;20419;-59
2024/02/28 13:05:43;;;;;;;5.53;2.60;;;11.40;86.10;;;;;;4950589;28;20623;-59
2024/02/28 13:08:08;;;;;;;3.73;2.60;;;11.60;86.00;;;;;;4951012;28;20433;-59
2024/02/28 13:10:35;;;;;;;7.93;4.00;;;11.80;84.10;;;;;;4951615;28;20578;-59
2024/02/28 13:13:02;;;;;;;6.70;2.80;;;11.60;83.90;;;;;;4951471;28;20540;-59
2024/02/28 13:15:27;;;;;;;2.83;2.30;;;11.60;83.90;;;;;;4951866;28;20435;-59
2024/02/28 13:17:53;;;;;;;5.30;2.13;;;11.80;85.40;;;;;;4957569;28;20508;-59
2024/02/28 13:20:18;;;;;;;4.30;4.03;;;12.20;84.20;;;;;;4958173;28;20549;-59
2024/02/28 13:22:44;;;;;;;3.50;3.30;;;12.40;83.40;;;;;;4950011;28;20659;-59
2024/02/28 13:25:11;;;;;;;3.83;3.17;;;12.50;82.70;;;;;;4958269;28;20250;-59
2024/02/28 13:27:37;;;;;;;2.97;2.70;;;12.50;81.40;;;;;;4952818;28;20410;-58
2024/02/28 13:30:03;;;;;;;2.37;2.17;;;12.30;80.90;;;;;;4955201;28;20433;-59
2024/02/28 13:32:29;;;;;;;6.23;5.90;;;12.10;81.40;;;;;;4951107;28;20678;-59
2024/02/28 13:34:55;;;;;;;5.13;2.90;;;12.20;81.70;;;;;;4959266;28;20434;-59
2024/02/28 13:37:20;;;;;;;7.73;2.80;;;12.20;81.10;;;;;;4957183;28;20214;-59
2024/02/28 13:39:46;;;;;;;4.13;3.23;;;12.20;81.70;;;;;;4957528;28;20176;-59
2024/02/28 13:42:12;;;;;;;10.37;7.00;;;12.30;80.90;;;;;;4958817;28;20198;-59
2024/02/28 13:44:38;;;;;;;5.53;2.67;;;12.30;80.90;;;;;;4951647;28;20210;-59
2024/02/28 13:47:04;;;;;;;2.83;2.30;;;12.50;80.60;;;;;;4952589;28;21064;-59
2024/02/28 13:49:29;;;;;;;4.13;2.20;;;12.40;80.70;;;;;;4957764;28;20664;-59
2024/02/28 13:51:55;;;;;;;3.80;3.53;;;12.20;82.10;;;;;;4957489;28;20298;-59
2024/02/28 13:54:20;;;;;;;8.50;3.50;;;12.30;82.40;;;;;;4950947;28;20764;-59
2024/02/28 13:56:46;;;;;;;1.43;1.37;;;12.60;80.20;;;;;;4950954;28;20199;-59
2024/02/28 13:59:12;;;;;;;7.03;4.43;;;12.80;76.80;;;;;;4951011;28;20179;-59
2024/02/28 14:01:38;;;;;;;4.83;3.53;;;13.00;76.80;;;;;;4949602;28;20537;-59
2024/02/28 14:04:04;;;;;;;6.77;4.23;;;13.20;75.20;;;;;;4950861;28;20478;-59
2024/02/28 14:06:30;;;;;;;5.03;3.00;;;13.20;75.70;;;;;;4949433;28;20637;-59
2024/02/28 14:08:55;;;;;;;6.83;2.97;;;13.10;75.70;;;;;;4951015;28;20183;-59
2024/02/28 14:11:22;;;;;;;3.90;3.60;;;13.20;76.00;;;;;;4950578;28;20535;-59
2024/02/28 14:13:48;;;;;;;3.33;2.63;;;13.10;76.30;;;;;;4950902;28;20199;-59
2024/02/28 14:16:13;;;;;;;5.80;2.77;;;12.80;76.90;;;;;;4950638;28;20486;-59
2024/02/28 14:18:39;;;;;;;5.47;3.33;;;12.90;76.20;;;;;;4950622;28;20195;-59
2024/02/28 14:21:05;;;;;;;6.60;4.40;;;13.10;78.10;;;;;;4950463;28;20371;-59
2024/02/28 14:23:30;;;;;;;8.57;4.60;;;13.20;77.20;;;;;;4948951;28;20663;-59
2024/02/28 14:25:56;;;;;;;6.93;3.70;;;13.30;77.60;;;;;;4950639;28;20537;-59
2024/02/28 14:28:22;;;;;;;3.50;2.30;;;13.60;76.30;;;;;;4950548;28;20191;-59
2024/02/28 14:30:49;;;;;;;5.57;4.10;;;13.70;76.20;;;;;;4950641;28;20300;-59
2024/02/28 14:33:14;;;;;;;9.03;4.47;;;13.80;75.70;;;;;;4950551;28;20182;-59
2024/02/28 14:35:41;;;;;;;9.33;4.40;;;14.00;74.30;;;;;;4950790;28;20498;-59
2024/02/28 14:38:07;;;;;;;2.63;2.30;;;14.00;73.30;;;;;;4949067;28;20211;-59
2024/02/28 14:40:32;;;;;;;2.87;1.87;;;14.00;73.90;;;;;;4949951;28;20449;-59
2024/02/28 14:42:58;;;;;;;8.40;2.70;;;14.10;73.10;;;;;;4950218;28;20190;-59
2024/02/28 14:45:26;;;;;;;2.03;1.80;;;14.30;72.90;;;;;;4947611;28;20179;-59
2024/02/28 14:47:52;;;;;;;4.13;2.43;;;14.40;72.80;;;;;;4950049;28;20167;-59
2024/02/28 14:50:17;;;;;;;6.63;2.93;;;14.30;72.50;;;;;;4948301;28;20413;-60
2024/02/28 14:52:43;;;;;;;4.17;3.13;;;14.30;73.00;;;;;;4948962;28;20210;-59
2024/02/28 14:55:09;;;;;;;3.43;3.23;;;14.50;72.70;;;;;;4950223;28;20250;-59
2024/02/28 14:57:42;;;;;;;3.87;3.50;;;14.30;72.10;;;;;;4949968;28;20284;-59
2024/02/28 15:00:13;;;;;;;8.20;5.07;;;14.60;72.20;;;;;;4950207;28;20415;-59
2024/02/28 15:02:39;;;;;;;3.30;2.73;;;14.50;72.90;;;;;;4948162;28;20923;-59
2024/02/28 15:05:06;;;;;;;4.17;3.03;;;14.50;73.60;;;;;;4948660;28;20496;-59
2024/02/28 15:07:32;;;;;;;5.77;4.20;;;14.50;72.90;;;;;;4948297;28;20489;-59
2024/02/28 15:10:00;;;;;;;3.53;2.70;;;14.50;73.10;;;;;;4950070;28;20418;-59
2024/02/28 15:12:26;;;;;;;5.00;3.83;;;14.70;72.20;;;;;;4948763;28;20509;-59
2024/02/28 15:14:54;;;;;;;9.13;3.40;;;14.90;72.00;;;;;;4955188;28;20423;-59
2024/02/28 15:17:19;;;;;;;6.13;2.90;;;14.80;72.60;;;;;;4954245;28;20545;-59
2024/02/28 15:19:45;;;;;;;2.30;2.10;;;14.60;71.90;;;;;;4954102;28;20562;-59
2024/02/28 15:22:10;;;;;;;2.93;2.77;;;14.50;72.60;;;;;;4950218;28;20269;-59
2024/02/28 15:24:37;;;;;;;5.57;3.07;;;14.60;72.40;;;;;;4946939;28;20630;-60
2024/02/28 15:27:03;;;;;;;8.20;4.43;;;14.60;72.40;;;;;;4960133;28;20546;-59
2024/02/28 15:29:29;;;;;;;5.67;3.57;;;14.80;72.50;;;;;;4950016;28;20494;-59
2024/02/28 15:31:54;;;;;;;7.00;3.90;;;14.60;72.50;;;;;;4953743;28;20457;-59
2024/02/28 15:34:20;;;;;;;6.70;3.20;;;14.40;72.60;;;;;;4953821;28;20183;-59
2024/02/28 15:36:46;;;;;;;12.57;3.20;;;14.10;72.60;;;;;;4948643;28;20262;-60
2024/02/28 15:39:12;;;;;;;5.23;2.93;;;13.80;72.60;;;;;;4953651;28;20182;-60
2024/02/28 15:41:37;;;;;;;3.67;2.30;;;14.00;73.10;;;;;;4951879;28;20867;-60
2024/02/28 15:44:03;;;;;;;5.90;3.17;;;14.50;73.00;;;;;;4953744;28;20648;-59
2024/02/28 15:46:28;;;;;;;12.43;3.10;;;14.90;72.10;;;;;;4953271;28;20183;-59
2024/02/28 15:48:54;;;;;;;3.70;3.23;;;15.00;71.60;;;;;;4954785;28;20290;-59
2024/02/28 15:51:20;;;;;;;3.17;2.10;;;15.30;71.70;;;;;;4954476;28;20725;-59
2024/02/28 15:53:45;;;;;;;4.20;3.27;;;15.50;70.80;;;;;;4953048;28;20249;-60
2024/02/28 15:56:12;;;;;;;6.47;3.80;;;15.30;69.00;;;;;;4954497;28;20266;-59
2024/02/28 15:58:39;;;;;;;4.63;3.87;;;15.60;68.70;;;;;;4949702;28;20208;-59
2024/02/28 16:01:05;;;;;;;3.73;3.27;;;15.80;69.10;;;;;;4951755;28;20486;-59
2024/02/28 16:03:30;;;;;;;2.80;2.63;;;15.70;69.00;;;;;;4954898;28;20434;-60
2024/02/28 16:05:56;;;;;;;2.50;2.33;;;15.50;69.20;;;;;;4953810;28;20552;-62
2024/02/28 16:08:24;;;;;;;6.00;2.90;;;14.90;69.30;;;;;;4954452;28;20555;-60
2024/02/28 16:10:50;;;;;;;4.17;3.30;;;14.10;70.70;;;;;;4953802;28;20333;-60
2024/02/28 16:13:15;;;;;;;2.80;2.20;;;13.20;71.50;;;;;;4956497;28;20521;-60
2024/02/28 16:15:41;;;;;;;5.57;2.80;;;12.70;72.60;;;;;;4952260;28;20266;-60
2024/02/28 16:18:07;;;;;;;7.40;4.63;;;12.30;73.90;;;;;;4956679;28;20214;-60
2024/02/28 16:20:33;;;;;;;4.97;3.10;;;11.80;75.20;;;;;;4952646;28;20195;-60
2024/02/28 16:22:59;;;;;;;5.00;4.30;;;11.30;76.30;;;;;;4951701;28;20481;-60
2024/02/28 16:25:27;;;;;;;5.23;3.07;;;10.90;77.90;;;;;;4950158;28;20422;-60
2024/02/28 16:27:53;;;;;;;2.33;2.13;;;10.50;79.40;;;;;;4949954;28;20371;-59
2024/02/28 16:30:18;;;;;;;3.33;2.67;;;10.20;81.20;;;;;;4949530;28;20760;-60
2024/02/28 16:32:45;;;;;;;4.30;3.57;;;9.80;82.40;;;;;;4950041;28;20187;-60
2024/02/28 16:35:10;;;;;;;2.00;1.93;;;9.50;83.00;;;;;;4950312;28;20266;-60
2024/02/28 16:37:37;;;;;;;3.00;2.20;;;9.20;83.80;;;;;;4954936;28;20873;-60
2024/02/28 16:40:03;;;;;;;4.43;3.73;;;9.00;84.40;;;;;;4950406;28;20179;-60
2024/02/28 16:42:30;;;;;;;4.47;4.17;;;8.80;85.30;;;;;;4957492;28;20418;-60
2024/02/28 16:44:56;;;;;;;3.00;2.80;;;8.70;86.40;;;;;;4951463;28;20423;-60
2024/02/28 16:47:21;;;;;;;3.07;2.63;;;8.60;87.60;;;;;;4952887;28;20423;-60
2024/02/28 16:49:47;;;;;;;6.50;3.70;;;8.40;87.90;;;;;;4952963;28;20183;-60
2024/02/28 16:52:13;;;;;;;2.90;2.70;;;8.30;87.80;;;;;;4952710;28;20249;-60
2024/02/28 16:54:39;;;;;;;3.47;2.93;;;8.00;87.90;;;;;;4951241;28;20427;-60
2024/02/28 16:57:04;;;;;;;3.67;3.50;;;7.80;88.50;;;;;;4951143;28;20466;-60
2024/02/28 16:59:30;;;;;;;5.07;2.60;;;7.60;89.90;;;;;;4952006;28;20191;-60
2024/02/28 17:01:55;;;;;;;4.70;2.73;;;7.40;91.10;;;;;;4951793;28;20286;-60
2024/02/28 17:04:21;;;;;;;4.60;2.73;;;7.20;92.10;;;;;;4951175;28;20172;-60
2024/02/28 17:06:47;;;;;;;2.97;2.77;;;7.10;92.70;;;;;;4951967;28;20183;-60
2024/02/28 17:09:12;;;;;;;3.93;3.33;;;6.90;93.30;;;;;;4952182;28;20187;-60
2024/02/28 17:11:38;;;;;;;3.80;3.20;;;6.80;93.90;;;;;;4951559;28;20754;-60
2024/02/28 17:14:04;;;;;;;4.17;3.23;;;6.70;94.40;;;;;;4950467;28;20183;-60
2024/02/28 17:16:30;;;;;;;6.50;4.60;;;6.60;94.70;;;;;;4948023;28;20183;-60
2024/02/28 17:18:55;;;;;;;3.13;2.33;;;6.50;95.10;;;;;;4953256;28;20233;-60
2024/02/28 17:21:20;;;;;;;7.80;2.90;;;6.40;94.80;;;;;;4949722;28;20230;-60
2024/02/28 17:23:46;;;;;;;4.43;2.43;;;6.30;94.30;;;;;;4957252;28;20273;-60
2024/02/28 17:26:12;;;;;;;3.40;2.60;;;6.20;94.70;;;;;;4950558;28;20191;-60
2024/02/28 17:28:37;;;;;;;2.60;1.87;;;6.00;95.50;;;;;;4950075;28;20197;-60
2024/02/28 17:31:03;;;;;;;10.23;3.20;;;5.90;95.90;;;;;;4951568;28;20203;-59
2024/02/28 17:33:29;;;;;;;5.90;3.43;;;5.80;96.30;;;;;;4954745;28;20261;-59
2024/02/28 17:35:55;;;;;;;3.63;2.37;;;5.80;96.40;;;;;;4953402;28;20186;-59
2024/02/28 17:38:20;;;;;;;6.00;3.00;;;5.70;96.70;;;;;;4960667;28;20466;-59
2024/02/28 17:40:46;;;;;;;6.53;2.80;;;5.60;96.80;;;;;;4951404;28;20682;-59
2024/02/28 17:43:12;;;;;;;3.43;3.00;;;5.50;97.30;;;;;;4952051;28;20267;-59
2024/02/28 17:45:38;;;;;;;3.97;3.60;;;5.40;97.30;;;;;;4951198;28;20187;-59
2024/02/28 17:48:06;;;;;;;3.27;2.97;;;5.40;97.30;;;;;;4951237;28;20563;-59
2024/02/28 17:50:34;;;;;;;3.40;2.37;;;5.30;97.30;;;;;;4957901;28;20699;-59
2024/02/28 17:53:00;;;;;;;5.97;2.40;;;5.10;97.30;;;;;;4955543;28;20481;-59
2024/02/28 17:55:27;;;;;;;2.03;1.90;;;5.10;97.30;;;;;;4949472;28;20438;-59
2024/02/28 17:57:53;;;;;;;8.07;3.10;;;5.10;97.30;;;;;;4955091;28;20198;-60
2024/02/28 18:00:25;;;;;;;5.67;4.40;;;5.00;97.30;;;;;;4956073;28;20435;-59
2024/02/28 18:02:51;;;;;;;2.90;2.70;;;4.90;97.30;;;;;;4962569;28;20434;-60
2024/02/28 18:05:16;;;;;;;4.30;4.03;;;4.90;97.30;;;;;;4960762;28;20429;-59
2024/02/28 18:07:42;;;;;;;3.27;3.10;;;4.80;97.30;;;;;;4949200;28;20707;-60
2024/02/28 18:10:10;;;;;;;7.33;4.30;;;4.70;97.30;;;;;;4957225;28;20210;-59
2024/02/28 18:12:37;;;;;;;11.90;3.80;;;4.60;97.30;;;;;;4950943;28;20234;-59
2024/02/28 18:15:03;;;;;;;10.93;2.90;;;4.50;97.30;;;;;;4956761;28;20806;-59
2024/02/28 18:17:29;;;;;;;6.90;2.93;;;4.50;97.30;;;;;;4964846;28;20556;-59
2024/02/28 18:19:54;;;;;;;3.03;2.60;;;4.40;97.30;;;;;;4953931;28;20522;-59
2024/02/28 18:22:20;;;;;;;3.53;2.03;;;4.40;97.30;;;;;;4965002;28;20195;-59
2024/02/28 18:24:45;;;;;;;1.90;1.70;;;4.30;97.30;;;;;;4949183;28;20188;-59
2024/02/28 18:27:11;;;;;;;1.83;1.77;;;4.10;97.30;;;;;;4949431;28;20191;-59
2024/02/28 18:29:36;;;;;;;4.27;2.30;;;4.00;97.30;;;;;;4949253;28;20241;-59
2024/02/28 18:32:03;;;;;;;4.50;4.23;;;4.00;97.30;;;;;;4968672;28;20606;-59
2024/02/28 18:34:28;;;;;;;1.67;1.47;;;4.00;97.30;;;;;;4960832;28;20178;-60
2024/02/28 18:36:57;;;;;;;3.00;2.80;;;3.90;97.30;;;;;;4960646;28;20469;-59
2024/02/28 18:39:24;;;;;;;4.20;3.80;;;3.90;97.30;;;;;;4958497;28;20191;-59
2024/02/28 18:41:50;;;;;;;4.93;2.97;;;3.90;97.30;;;;;;4957393;28;20788;-59
2024/02/28 18:44:15;;;;;;;6.43;3.60;;;3.70;97.30;;;;;;4956348;28;20489;-59
2024/02/28 18:46:41;;;;;;;8.43;4.03;;;3.50;97.30;;;;;;4950579;28;20198;-60
2024/02/28 18:49:07;;;;;;;5.50;4.67;;;3.50;97.30;;;;;;4957020;28;20213;-60